Home > Products > Valid Products > MTR

000
SAUS43 KEAX 311454
MTRCDJ
METAR KCDJ 311452Z AUTO VRB05KT 27/19 A3016 RMK AO1 SLP199 T02670194
58005





000
SAUS43 KEAX 311354
MTRCDJ
METAR KCDJ 311352Z AUTO 27004KT 25/19 A3017 RMK AO1 SLP205 T02500189





000
SAUS43 KEAX 311253
MTRCDJ
METAR KCDJ 311252Z AUTO 22005KT 23/19 A3017 RMK AO1 SLP203 T02280189





000
SAUS43 KEAX 311253
MTRCDJ
METAR KCDJ 311252Z AUTO 22005KT 23/19 A3017 RMK AO1 SLP203 T02280189





000
SAUS43 KEAX 311154
MTRCDJ
METAR KCDJ 311152Z AUTO VRB03KT 21/19 A3017 RMK AO1 SLP203 T02060189
10206 20189 53004





000
SAUS43 KEAX 311154
MTRCDJ
METAR KCDJ 311152Z AUTO VRB03KT 21/19 A3017 RMK AO1 SLP203 T02060189
10206 20189 53004





000
SAUS43 KEAX 311053
MTRCDJ
METAR KCDJ 311052Z AUTO 00000KT 19/18 A3017 RMK AO1 SLP203 T01890178





000
SAUS43 KEAX 310953
MTRCDJ
METAR KCDJ 310952Z AUTO 00000KT 19/18 A3015 RMK AO1 SLP197 T01940183





000
SAUS43 KEAX 310853
MTRCDJ
METAR KCDJ 310852Z AUTO 00000KT 19/19 A3016 RMK AO1 SLP199 T01940189
58003





000
SAUS43 KEAX 310853
MTRCDJ
METAR KCDJ 310852Z AUTO 00000KT 19/19 A3016 RMK AO1 SLP199 T01940189
58003





000
SAUS43 KEAX 310753
MTRCDJ
METAR KCDJ 310752Z AUTO 00000KT 20/19 A3016 RMK AO1 SLP201 T02000189





000
SAUS43 KEAX 310753
MTRCDJ
METAR KCDJ 310752Z AUTO 00000KT 20/19 A3016 RMK AO1 SLP201 T02000189





000
SAUS43 KEAX 310654
MTRCDJ
METAR KCDJ 310652Z AUTO 00000KT 20/19 A3017 RMK AO1 SLP204 T02000194





000
SAUS43 KEAX 310553
MTRCDJ
METAR KCDJ 310552Z AUTO 00000KT 21/19 A3017 RMK AO1 SLP203 T02060194
10306 20206 403220172 51006





000
SAUS43 KEAX 310553
MTRCDJ
METAR KCDJ 310552Z AUTO 00000KT 21/19 A3017 RMK AO1 SLP203 T02060194
10306 20206 403220172 51006





000
SAUS43 KEAX 310453
MTRCDJ
METAR KCDJ 310452Z AUTO 00000KT 21/19 A3016 RMK AO1 SLP201 T02110194





000
SAUS43 KEAX 310353
MTRCDJ
METAR KCDJ 310352Z AUTO 00000KT 22/20 A3016 RMK AO1 SLP199 T02170200





000
SAUS43 KEAX 310353
MTRCDJ
METAR KCDJ 310352Z AUTO 00000KT 22/20 A3016 RMK AO1 SLP199 T02170200





000
SAUS43 KEAX 310253
MTRCDJ
METAR KCDJ 310252Z AUTO 00000KT 23/21 A3015 RMK AO1 SLP197 T02280206
53005





000
SAUS43 KEAX 310154
MTRCDJ
METAR KCDJ 310152Z AUTO 00000KT 24/21 A3014 RMK AO1 SLP192 T02390206





000
SAUS43 KEAX 310053
MTRCDJ
METAR KCDJ 310052Z AUTO 00000KT 27/21 A3014 RMK AO1 SLP192 T02720206





000
SAUS43 KEAX 302353
MTRCDJ
METAR KCDJ 302352Z AUTO 00000KT 31/19 A3013 RMK AO1 SLP192 T03060194
10322 20294 56014





000
SAUS43 KEAX 302353
MTRCDJ
METAR KCDJ 302352Z AUTO 00000KT 31/19 A3013 RMK AO1 SLP192 T03060194
10322 20294 56014





000
SAUS43 KEAX 302253
MTRCDJ
METAR KCDJ 302252Z AUTO VRB03KT 31/18 A3014 RMK AO1 SLP194 T03110183





000
SAUS43 KEAX 302253
MTRCDJ
METAR KCDJ 302252Z AUTO VRB03KT 31/18 A3014 RMK AO1 SLP194 T03110183





000
SAUS43 KEAX 302153
MTRCDJ
METAR KCDJ 302152Z AUTO VRB05KT 31/19 A3016 RMK AO1 SLP199 T03110189





000
SAUS43 KEAX 302053
MTRCDJ
METAR KCDJ 302052Z AUTO 25004KT 31/18 A3017 RMK AO1 SLP205 T03110178
56013





000
SAUS43 KEAX 302053
MTRCDJ
METAR KCDJ 302052Z AUTO 25004KT 31/18 A3017 RMK AO1 SLP205 T03110178
56013





000
SAUS43 KEAX 301953
MTRCDJ
METAR KCDJ 301952Z AUTO 25006KT 31/17 A3019 RMK AO1 SLP210 T03060172





000
SAUS43 KEAX 301953
MTRCDJ
METAR KCDJ 301952Z AUTO 25006KT 31/17 A3019 RMK AO1 SLP210 T03060172





000
SAUS43 KEAX 301853
MTRCDJ
METAR KCDJ 301852Z AUTO VRB05KT 30/18 A3020 RMK AO1 SLP212 T03000178





000
SAUS43 KEAX 301853
MTRCDJ
METAR KCDJ 301852Z AUTO VRB05KT 30/18 A3020 RMK AO1 SLP212 T03000178





000
SAUS43 KEAX 301753
MTRCDJ
METAR KCDJ 301752Z AUTO VRB05KT 29/18 A3021 RMK AO1 SLP218 T02940183
10300 20178 50000





000
SAUS43 KEAX 301653
MTRCDJ
METAR KCDJ 301652Z AUTO 26006KT 29/17 A3022 RMK AO1 SLP221 T02940167





000
SAUS43 KEAX 301553
MTRCDJ
METAR KCDJ 301552Z AUTO 31005KT 28/18 A3022 RMK AO1 SLP220 T02780183





000
SAUS43 KEAX 301453
MTRCDJ
METAR KCDJ 301452Z AUTO VRB03KT 27/18 A3021 RMK AO1 SLP220 T02670183
51008





000
SAUS43 KEAX 301453
MTRCDJ
METAR KCDJ 301452Z AUTO VRB03KT 27/18 A3021 RMK AO1 SLP220 T02670183
51008





000
SAUS43 KEAX 301353
MTRCDJ
METAR KCDJ 301352Z AUTO 29003KT 24/19 A3021 RMK AO1 SLP219 T02440189





000
SAUS43 KEAX 301254
MTRCDJ
METAR KCDJ 301252Z AUTO 00000KT 21/19 A3020 RMK AO1 SLP215 T02110194





000
SAUS43 KEAX 301254
MTRCDJ
METAR KCDJ 301252Z AUTO 00000KT 21/19 A3020 RMK AO1 SLP215 T02110194





000
SAUS43 KEAX 301153
MTRCDJ
METAR KCDJ 301152Z AUTO 00000KT 18/17 A3019 RMK AO1 SLP212 T01780172
10189 20172 53004





000
SAUS43 KEAX 301153
MTRCDJ
METAR KCDJ 301152Z AUTO 00000KT 18/17 A3019 RMK AO1 SLP212 T01780172
10189 20172 53004





000
SAUS43 KEAX 301053
MTRCDJ
METAR KCDJ 301052Z AUTO 00000KT 17/16 A3017 RMK AO1 SLP206 T01720161





000
SAUS43 KEAX 300953
MTRCDJ
METAR KCDJ 300952Z AUTO 00000KT 18/17 A3018 RMK AO1 SLP208 T01780167





000
SAUS43 KEAX 300853
MTRCDJ
METAR KCDJ 300852Z AUTO 00000KT 18/17 A3018 RMK AO1 SLP207 T01780167
55002





000
SAUS43 KEAX 300754
MTRCDJ
METAR KCDJ 300752Z AUTO 00000KT 18/17 A3017 RMK AO1 SLP205 T01830172





000
SAUS43 KEAX 300654
MTRCDJ
METAR KCDJ 300652Z AUTO 00000KT 18/17 A3018 RMK AO1 SLP207 T01830172





000
SAUS43 KEAX 300654
MTRCDJ
METAR KCDJ 300652Z AUTO 00000KT 18/17 A3018 RMK AO1 SLP207 T01830172





000
SAUS43 KEAX 300553
MTRCDJ
METAR KCDJ 300552Z AUTO 00000KT 19/18 A3018 RMK AO1 SLP208 T01890178
10289 20189 403000189 53006





000
SAUS43 KEAX 300553
MTRCDJ
METAR KCDJ 300552Z AUTO 00000KT 19/18 A3018 RMK AO1 SLP208 T01890178
10289 20189 403000189 53006





000
SAUS43 KEAX 300453
MTRCDJ
METAR KCDJ 300452Z AUTO 00000KT 19/18 A3018 RMK AO1 SLP207 T01940183





000
SAUS43 KEAX 300353
MTRCDJ
METAR KCDJ 300352Z AUTO 00000KT 20/19 A3017 RMK AO1 SLP206 T02000189





000
SAUS43 KEAX 300353
MTRCDJ
METAR KCDJ 300352Z AUTO 00000KT 20/19 A3017 RMK AO1 SLP206 T02000189





000
SAUS43 KEAX 300253
MTRCDJ
METAR KCDJ 300252Z AUTO 00000KT 21/20 A3017 RMK AO1 SLP204 T02110200
53010





000
SAUS43 KEAX 300153
MTRCDJ
METAR KCDJ 300152Z AUTO 00000KT 23/21 A3014 RMK AO1 SLP196 T02280211





000
SAUS43 KEAX 300054
MTRCDJ
METAR KCDJ 300052Z AUTO 00000KT 26/21 A3014 RMK AO1 SLP193 T02560211





000
SAUS43 KEAX 292353
MTRCDJ
METAR KCDJ 292352Z AUTO 00000KT 29/21 A3013 RMK AO1 SLP191 T02890206
10300 20283 56001





000
SAUS43 KEAX 292253
MTRCDJ
METAR KCDJ 292252Z AUTO 30003KT 30/18 A3014 RMK AO1 SLP192 T03000183





000
SAUS43 KEAX 292153
MTRCDJ
METAR KCDJ 292152Z AUTO VRB03KT 28/19 A3013 RMK AO1 SLP191 T02830189





000
SAUS43 KEAX 292053
MTRCDJ
METAR KCDJ 292052Z AUTO 35006KT 30/18 A3014 RMK AO1 SLP192 T03000178
58002





000
SAUS43 KEAX 291953
MTRCDJ
METAR KCDJ 291952Z AUTO 02006KT 29/17 A3015 RMK AO1 SLP197 T02940167





000
SAUS43 KEAX 291853
MTRCDJ
METAR KCDJ 291852Z AUTO VRB05KT 29/19 A3015 RMK AO1 SLP196 T02890189





000
SAUS43 KEAX 291853
MTRCDJ
METAR KCDJ 291852Z AUTO VRB05KT 29/19 A3015 RMK AO1 SLP196 T02890189





000
SAUS43 KEAX 291753
MTRCDJ
METAR KCDJ 291752Z AUTO 03005KT 29/19 A3014 RMK AO1 SLP193 T02940194
10294 20228 51007





000
SAUS43 KEAX 291653
MTRCDJ
METAR KCDJ 291652Z AUTO VRB05KT 28/21 A3014 RMK AO1 SLP189 T02780206





000
SAUS43 KEAX 291553
MTRCDJ
METAR KCDJ 291552Z AUTO VRB03KT 27/22 A3014 RMK AO1 SLP190 T02670222





000
SAUS43 KEAX 291453
MTRCDJ
METAR KCDJ 291452Z AUTO 31004KT 26/23 A3012 RMK AO1 SLP184 T02560228
50014





000
SAUS43 KEAX 291453
MTRCDJ
METAR KCDJ 291452Z AUTO 31004KT 26/23 A3012 RMK AO1 SLP184 T02560228
50014





000
SAUS43 KEAX 291353
MTRCDJ
METAR KCDJ 291352Z AUTO 00000KT 24/23 A3012 RMK AO1 SLP186 T02440228





000
SAUS43 KEAX 291253
MTRCDJ
METAR KCDJ 291252Z AUTO 00000KT 23/22 A3009 RMK AO1 SLP176 T02280217





000
SAUS43 KEAX 291253
MTRCDJ
METAR KCDJ 291252Z AUTO 00000KT 23/22 A3009 RMK AO1 SLP176 T02280217





000
SAUS43 KEAX 291153
MTRCDJ
METAR KCDJ 291152Z AUTO VRB05KT 23/22 A3008 RMK AO1 SLP170 60208
70208 T02280217 10250 20222 53005





000
SAUS43 KEAX 291053
MTRCDJ
METAR KCDJ 291052Z AUTO 27004KT 22/22 A3006 RMK AO1 SLP163 P0011
T02220217





000
SAUS43 KEAX 291053
MTRCDJ
METAR KCDJ 291052Z AUTO 27004KT 22/22 A3006 RMK AO1 SLP163 P0011
T02220217





000
SAUS43 KEAX 290953
MTRCDJ
METAR KCDJ 290952Z AUTO 00000KT 22/22 A3008 RMK AO1 SLP171 P0012
T02220217





000
SAUS43 KEAX 290853
MTRCDJ
METAR KCDJ 290852Z AUTO 00000KT 22/22 A3007 RMK AO1 SLP165 P0003
60185 T02220217 51016





000
SAUS43 KEAX 290853
MTRCDJ
METAR KCDJ 290852Z AUTO 00000KT 22/22 A3007 RMK AO1 SLP165 P0003
60185 T02220217 51016





000
SAUS43 KEAX 290753
MTRCDJ
METAR KCDJ 290752Z AUTO 17004KT 22/22 A3004 RMK AO1 SLP157 P0084
T02220217





000
SAUS43 KEAX 290653
MTRCDJ
METAR KCDJ 290652Z AUTO 03011G17KT 23/22 A3005 RMK AO1 SLP159 P0098
T02280222





000
SAUS43 KEAX 290653
MTRCDJ
METAR KCDJ 290652Z AUTO 03011G17KT 23/22 A3005 RMK AO1 SLP159 P0098
T02280222





000
SAUS43 KEAX 290553
MTRCDJ
METAR KCDJ 290552Z AUTO 02019G25KT 25/21 A3002 RMK AO1 PK WND
35030/0534 SLP148 T02500211 10333 20250 403440233 53033





000
SAUS43 KEAX 290553
MTRCDJ
METAR KCDJ 290552Z AUTO 02019G25KT 25/21 A3002 RMK AO1 PK WND
35030/0534 SLP148 T02500211 10333 20250 403440233 53033





000
SAUS43 KEAX 290453
MTRCDJ
METAR KCDJ 290452Z AUTO 14004KT 29/24 A2994 RMK AO1 SLP120 T02890244





000
SAUS43 KEAX 290353
MTRCDJ
METAR KCDJ 290352Z AUTO 14003KT 29/24 A2994 RMK AO1 SLP119 T02890244





000
SAUS43 KEAX 290253
MTRCDJ
METAR KCDJ 290252Z AUTO 15005KT 29/24 A2992 RMK AO1 SLP114 T02940244
53011





000
SAUS43 KEAX 290153
MTRCDJ
METAR KCDJ 290152Z AUTO 00000KT 30/24 A2990 RMK AO1 SLP108 T03000239





000
SAUS43 KEAX 290053
MTRCDJ
METAR KCDJ 290052Z AUTO 16004KT 32/24 A2988 RMK AO1 SLP102 T03170244





000
SAUS43 KEAX 282353
MTRCDJ
METAR KCDJ 282352Z AUTO 17004KT 33/24 A2989 RMK AO1 SLP103 T03330244
10344 20333 55001





000
SAUS43 KEAX 282253
MTRCDJ
METAR KCDJ 282252Z AUTO 17007KT 34/25 A2986 RMK AO1 SLP096 T03390250





000
SAUS43 KEAX 282253
MTRCDJ
METAR KCDJ 282252Z AUTO 17007KT 34/25 A2986 RMK AO1 SLP096 T03390250





000
SAUS43 KEAX 282153
MTRCDJ
METAR KCDJ 282152Z AUTO 18009KT 34/24 A2988 RMK AO1 SLP100 T03390239





000
SAUS43 KEAX 282053
MTRCDJ
METAR KCDJ 282052Z AUTO 17009G14KT 120V200 34/25 A2989 RMK AO1
SLP104 T03440250 56011





000
SAUS43 KEAX 281953
MTRCDJ
METAR KCDJ 281952Z AUTO 19008KT 34/25 A2990 RMK AO1 SLP108 T03440250





000
SAUS43 KEAX 281853
MTRCDJ
METAR KCDJ 281852Z AUTO 18006KT 34/24 A2991 RMK AO1 SLP110 T03390244





000
SAUS43 KEAX 281753
MTRCDJ
METAR KCDJ 281752Z AUTO 17006KT 33/24 A2992 RMK AO1 SLP115 T03330244
10333 20239 58002





000
SAUS43 KEAX 281753
MTRCDJ
METAR KCDJ 281752Z AUTO 17006KT 33/24 A2992 RMK AO1 SLP115 T03330244
10333 20239 58002





000
SAUS43 KEAX 281653
MTRCDJ
METAR KCDJ 281652Z AUTO 21007KT 33/24 A2993 RMK AO1 SLP117 T03280244





000
SAUS43 KEAX 281553
MTRCDJ
METAR KCDJ 281552Z AUTO 19007KT 32/25 A2993 RMK AO1 SLP119 T03220250





    US Dept of Commerce
    National Oceanic and Atmospheric Administration
    National Weather Service
    1325 East West Highway
    Silver Spring, MD 20910
    Page Author: NWS Internet Services Team
Disclaimer
Information Quality
Credits
Glossary
Privacy Policy
Freedom of Information Act (FOIA)
About Us
Career Opportunities